createdAt,value
2023-04-23T00:01:04.298Z,100933.31
2023-04-23T00:04:10.043Z,100935.91
2023-04-23T00:07:16.527Z,100923.34
2023-04-23T00:10:22.903Z,100929.06
2023-04-23T00:13:29.321Z,100931.25
2023-04-23T00:16:35.100Z,100929.81
2023-04-23T00:19:40.451Z,100926.06
2023-04-23T00:22:46.075Z,100917.09
2023-04-23T00:25:51.900Z,100920.50
2023-04-23T00:28:57.251Z,100919.41
2023-04-23T00:32:03.582Z,100919.94
2023-04-23T00:35:09.813Z,100914.31
2023-04-23T00:38:15.349Z,100916.78
2023-04-23T00:41:21.419Z,100914.91
2023-04-23T00:44:27.058Z,100912.22
2023-04-23T00:47:33.673Z,100913.88
2023-04-23T00:50:39.404Z,100911.41
2023-04-23T00:53:45.095Z,100907.63
2023-04-23T00:56:50.719Z,100908.91
2023-04-23T00:59:58.593Z,100908.91
2023-04-23T01:03:05.591Z,100903.53
2023-04-23T01:06:11.501Z,100906.75
2023-04-23T01:09:18.394Z,100901.03
2023-04-23T01:12:24.344Z,100896.94
2023-04-23T01:15:29.499Z,100896.19
2023-04-23T01:18:35.238Z,100907.41
2023-04-23T01:21:41.996Z,100900.84
2023-04-23T01:24:48.081Z,100894.44
2023-04-23T01:27:53.737Z,100896.19
2023-04-23T01:31:00.204Z,100903.00
2023-04-23T01:34:06.328Z,100894.38
2023-04-23T01:37:12.404Z,100892.75
2023-04-23T01:40:18.331Z,100889.47
2023-04-23T01:43:23.904Z,100892.13
2023-04-23T01:46:29.559Z,100899.84
2023-04-23T01:49:34.860Z,100902.53
2023-04-23T01:52:41.470Z,100899.38
2023-04-23T01:55:48.135Z,100896.94
2023-04-23T01:58:53.791Z,100894.59
2023-04-23T02:01:59.700Z,100901.47
2023-04-23T02:05:10.531Z,100901.66
2023-04-23T02:08:16.287Z,100899.16
2023-04-23T02:11:22.310Z,100898.66
2023-04-23T02:14:28.422Z,100894.94
2023-04-23T02:17:34.216Z,100904.84
2023-04-23T02:20:41.386Z,100896.22
2023-04-23T02:23:46.597Z,100892.94
2023-04-23T02:26:52.223Z,100891.56
2023-04-23T02:29:58.666Z,100886.19
2023-04-23T02:33:04.356Z,100884.28
2023-04-23T02:36:11.354Z,100886.38
2023-04-23T02:39:17.281Z,100890.63
2023-04-23T02:42:22.855Z,100878.25
2023-04-23T02:45:28.941Z,100880.72
2023-04-23T02:48:43.291Z,100886.78
2023-04-23T02:51:48.930Z,100872.38
2023-04-23T02:54:54.510Z,100880.53
2023-04-23T02:58:00.924Z,100889.56
2023-04-23T03:01:08.056Z,100889.31
2023-04-23T03:04:13.939Z,100886.31
2023-04-23T03:07:19.380Z,100885.94
2023-04-23T03:10:25.022Z,100893.88
2023-04-23T03:13:30.974Z,100880.78
2023-04-23T03:16:36.710Z,100892.19
2023-04-23T03:19:42.442Z,100878.38
2023-04-23T03:22:51.453Z,100877.88
2023-04-23T03:25:56.923Z,100872.31
2023-04-23T03:29:02.451Z,100873.81
2023-04-23T03:32:08.341Z,100877.63
2023-04-23T03:35:13.997Z,100886.38
2023-04-23T03:38:23.251Z,100893.19
2023-04-23T03:41:31.642Z,100884.00
2023-04-23T03:44:37.185Z,100889.72
2023-04-23T03:47:44.083Z,100883.00
2023-04-23T03:50:50.080Z,100891.03
2023-04-23T03:54:16.036Z,100891.53
2023-04-23T03:57:44.421Z,100890.47
2023-04-23T04:01:03.446Z,100889.56
2023-04-23T04:04:09.735Z,100890.81
2023-04-23T04:07:16.021Z,100883.31
2023-04-23T04:10:21.903Z,100882.06
2023-04-23T04:13:27.655Z,100889.69
2023-04-23T04:16:33.122Z,100885.16
2023-04-23T04:19:39.310Z,100889.75
2023-04-23T04:22:44.614Z,100892.69
2023-04-23T04:25:51.962Z,100890.50
2023-04-23T04:28:58.817Z,100895.59
2023-04-23T04:32:05.642Z,100885.03
2023-04-23T04:35:13.029Z,100885.22
2023-04-23T04:38:18.702Z,100895.34
2023-04-23T04:41:28.247Z,100884.75
2023-04-23T04:44:33.790Z,100887.06
2023-04-23T04:47:39.577Z,100887.72
2023-04-23T04:50:46.890Z,100888.84
2023-04-23T04:53:52.169Z,100892.16
2023-04-23T04:56:58.048Z,100898.38
2023-04-23T05:00:22.817Z,100895.53
2023-04-23T05:03:29.265Z,100901.38
2023-04-23T05:06:34.514Z,100899.06
2023-04-23T05:09:41.935Z,100900.59
2023-04-23T05:12:48.466Z,100910.69
2023-04-23T05:15:53.979Z,100917.53
2023-04-23T05:18:59.252Z,100916.13
2023-04-23T05:22:05.170Z,100907.75
2023-04-23T05:25:12.350Z,100911.13
2023-04-23T05:28:18.129Z,100917.78
2023-04-23T05:31:23.743Z,100907.94
2023-04-23T05:34:29.583Z,100915.69
2023-04-23T05:37:35.987Z,100910.41
2023-04-23T05:40:41.373Z,100916.56
2023-04-23T05:43:46.937Z,100921.28
2023-04-23T05:46:52.419Z,100930.09
2023-04-23T05:49:57.850Z,100919.56
2023-04-23T05:53:02.975Z,100920.63
2023-04-23T05:56:09.080Z,100922.59
2023-04-23T05:59:14.696Z,100919.81
2023-04-23T06:02:22.493Z,100926.69
2023-04-23T06:05:29.964Z,100922.41
2023-04-23T06:08:35.709Z,100928.41
2023-04-23T06:11:40.924Z,100922.97
2023-04-23T06:14:46.284Z,100925.69
2023-04-23T06:17:51.575Z,100924.53
2023-04-23T06:20:57.702Z,100931.06
2023-04-23T06:24:02.615Z,100930.75
2023-04-23T06:27:08.315Z,100938.66
2023-04-23T06:30:18.487Z,100931.31
2023-04-23T06:33:25.244Z,100931.38
2023-04-23T06:36:30.707Z,100932.56
2023-04-23T06:39:36.683Z,100923.16
2023-04-23T06:42:42.984Z,100939.50
2023-04-23T06:46:09.428Z,100940.16
2023-04-23T06:49:14.349Z,100940.69
2023-04-23T06:52:19.922Z,100937.44
2023-04-23T06:55:26.501Z,100929.47
2023-04-23T06:58:32.620Z,100943.78
2023-04-23T07:01:40.820Z,100934.63
2023-04-23T07:04:46.094Z,100932.75
2023-04-23T07:07:53.527Z,100939.19
2023-04-23T07:10:58.968Z,100920.91
2023-04-23T07:14:04.679Z,100937.28
2023-04-23T07:17:11.730Z,100926.03
2023-04-23T07:20:17.308Z,100929.56
2023-04-23T07:23:22.903Z,100929.00
2023-04-23T07:26:29.095Z,100938.44
2023-04-23T07:29:35.130Z,100936.56
2023-04-23T07:32:40.975Z,100931.97
2023-04-23T07:35:46.821Z,100931.41
2023-04-23T07:38:52.376Z,100935.13
2023-04-23T07:41:58.829Z,100932.72
2023-04-23T07:45:04.809Z,100932.13
2023-04-23T07:48:10.297Z,100941.59
2023-04-23T07:51:16.436Z,100934.81
2023-04-23T07:54:23.505Z,100924.78
2023-04-23T07:57:30.602Z,100932.66
2023-04-23T08:00:36.601Z,100929.88
2023-04-23T08:03:43.162Z,100934.78
2023-04-23T08:06:49.120Z,100932.81
2023-04-23T08:09:54.669Z,100933.03
2023-04-23T08:13:00.164Z,100933.91
2023-04-23T08:16:06.430Z,100936.78
2023-04-23T08:19:12.246Z,100936.66
2023-04-23T08:22:20.265Z,100936.56
2023-04-23T08:25:25.613Z,100929.06
2023-04-23T08:28:31.446Z,100936.69
2023-04-23T08:31:37.636Z,100935.47
2023-04-23T08:34:43.369Z,100928.56
2023-04-23T08:37:48.863Z,100935.28
2023-04-23T08:40:58.062Z,100928.19
2023-04-23T08:44:18.542Z,100937.44
2023-04-23T08:47:25.548Z,100931.47
2023-04-23T08:50:31.476Z,100932.13
2023-04-23T08:53:39.979Z,100923.16
2023-04-23T08:56:46.894Z,100935.72
2023-04-23T08:59:53.250Z,100925.63
2023-04-23T09:02:59.435Z,100927.34
2023-04-23T09:06:06.098Z,100919.81
2023-04-23T09:09:13.387Z,100921.00
2023-04-23T09:12:18.929Z,100918.19
2023-04-23T09:15:24.123Z,100919.75
2023-04-23T09:18:29.208Z,100914.00
2023-04-23T09:21:35.927Z,100909.97
2023-04-23T09:24:44.724Z,100916.22
2023-04-23T09:27:51.864Z,100900.53
2023-04-23T09:30:57.575Z,100902.66
2023-04-23T09:34:03.695Z,100907.16
2023-04-23T09:37:11.245Z,100898.78
2023-04-23T09:40:20.354Z,100901.75
2023-04-23T09:43:31.257Z,100895.31
2023-04-23T09:46:37.869Z,100893.41
2023-04-23T09:49:48.249Z,100893.66
2023-04-23T09:52:57.506Z,100885.91
2023-04-23T09:56:02.765Z,100891.06
2023-04-23T09:59:46.722Z,100888.72
2023-04-23T10:02:54.543Z,100896.41
2023-04-23T10:06:02.345Z,100892.47
2023-04-23T10:09:08.239Z,100906.03
2023-04-23T10:15:27.231Z,100891.91
2023-04-23T10:18:33.560Z,100888.41
2023-04-23T10:21:50.126Z,100886.09
2023-04-23T10:25:03.467Z,100882.63
2023-04-23T10:28:12.186Z,100875.81
2023-04-23T10:31:20.399Z,100870.50
2023-04-23T10:34:27.732Z,100872.69
2023-04-23T10:37:34.212Z,100874.53
2023-04-23T10:40:41.645Z,100863.91
2023-04-23T10:43:47.534Z,100869.66
2023-04-23T10:47:01.287Z,100876.81
2023-04-23T10:50:24.014Z,100874.72
2023-04-23T10:53:32.149Z,100869.78
2023-04-23T10:56:41.605Z,100863.06
2023-04-23T10:59:59.211Z,100866.06
2023-04-23T11:03:05.071Z,100861.03
2023-04-23T11:06:15.876Z,100869.41
2023-04-23T11:09:36.599Z,100859.63
2023-04-23T11:12:42.270Z,100853.59
2023-04-23T11:15:47.771Z,100842.94
2023-04-23T11:19:05.253Z,100848.91
2023-04-23T11:22:21.791Z,100841.63
2023-04-23T11:25:28.759Z,100830.19
2023-04-23T11:28:37.182Z,100821.53
2023-04-23T11:31:58.338Z,100821.09
2023-04-23T11:35:11.422Z,100812.66
2023-04-23T11:38:18.493Z,100816.69
2023-04-23T11:41:24.575Z,100798.47
2023-04-23T11:44:33.355Z,100805.38
2023-04-23T11:47:39.241Z,100796.72
2023-04-23T11:50:44.758Z,100792.34
2023-04-23T11:53:50.095Z,100792.78
2023-04-23T11:56:58.306Z,100781.72
2023-04-23T12:00:24.971Z,100771.44
2023-04-23T12:03:30.679Z,100768.66
2023-04-23T12:06:36.611Z,100759.31
2023-04-23T12:09:46.322Z,100757.88
2023-04-23T12:12:53.035Z,100759.22
2023-04-23T12:16:00.853Z,100765.31
2023-04-23T12:19:10.886Z,100764.81
2023-04-23T12:22:16.609Z,100769.31
2023-04-23T12:25:26.185Z,100764.69
2023-04-23T12:28:31.809Z,100758.78
2023-04-23T12:31:39.412Z,100760.19
2023-04-23T12:34:57.268Z,100759.56
2023-04-23T12:38:05.956Z,100752.81
2023-04-23T12:41:11.389Z,100755.53
2023-04-23T12:44:16.960Z,100750.56
2023-04-23T12:47:22.570Z,100742.94
2023-04-23T12:50:27.916Z,100742.13
2023-04-23T12:53:33.347Z,100735.34
2023-04-23T12:56:39.055Z,100737.41
2023-04-23T12:59:45.053Z,100727.75
2023-04-23T13:02:51.043Z,100729.19
2023-04-23T13:05:56.703Z,100721.91
2023-04-23T13:09:05.661Z,100720.66
2023-04-23T13:12:11.354Z,100715.84
2023-04-23T13:15:17.493Z,100708.75
2023-04-23T13:18:24.251Z,100703.03
2023-04-23T13:21:29.792Z,100703.50
2023-04-23T13:24:35.571Z,100691.53
2023-04-23T13:27:41.242Z,100681.25
2023-04-23T13:30:46.789Z,100678.06
2023-04-23T13:33:52.946Z,100679.59
2023-04-23T13:37:05.690Z,100671.31
2023-04-23T13:40:11.812Z,100674.38
2023-04-23T13:43:17.300Z,100670.81
2023-04-23T13:46:22.897Z,100665.22
2023-04-23T13:49:28.365Z,100658.78
2023-04-23T13:52:35.512Z,100660.03
2023-04-23T13:55:41.144Z,100659.91
2023-04-23T13:58:48.662Z,100657.53
2023-04-23T14:01:54.112Z,100654.03
2023-04-23T14:04:59.912Z,100643.16
2023-04-23T14:08:05.402Z,100645.22
2023-04-23T14:11:11.286Z,100626.81
2023-04-23T14:14:16.941Z,100632.22
2023-04-23T14:17:22.643Z,100624.44
2023-04-23T14:20:27.920Z,100626.25
2023-04-23T14:24:12.083Z,100633.38
2023-04-23T14:27:17.801Z,100627.78
2023-04-23T14:30:26.581Z,100632.28
2023-04-23T14:33:31.912Z,100623.00
2023-04-23T14:36:37.882Z,100621.75
2023-04-23T14:39:43.538Z,100608.06
2023-04-23T14:42:49.366Z,100610.13
2023-04-23T14:45:55.077Z,100603.88
2023-04-23T14:49:00.400Z,100611.50
2023-04-23T14:52:06.354Z,100613.78
2023-04-23T14:55:11.969Z,100615.69
2023-04-23T14:58:17.161Z,100614.88
2023-04-23T15:01:22.337Z,100612.69
2023-04-23T15:04:27.928Z,100607.00
2023-04-23T15:07:34.268Z,100606.50
2023-04-23T15:10:39.824Z,100608.75
2023-04-23T15:14:05.423Z,100605.88
2023-04-23T15:17:10.820Z,100598.06
2023-04-23T15:20:17.015Z,100598.69
2023-04-23T15:23:24.320Z,100598.38
2023-04-23T15:26:30.446Z,100596.63
2023-04-23T15:29:35.637Z,100593.13
2023-04-23T15:32:41.439Z,100597.75
2023-04-23T15:35:47.310Z,100593.72
2023-04-23T15:38:52.609Z,100598.19
2023-04-23T15:41:58.393Z,100597.72
2023-04-23T15:45:04.120Z,100600.28
2023-04-23T15:48:10.384Z,100586.38
2023-04-23T15:51:15.516Z,100590.03
2023-04-23T15:54:21.019Z,100590.84
2023-04-23T15:57:26.902Z,100585.72
2023-04-23T16:00:34.043Z,100584.28
2023-04-23T16:03:39.629Z,100578.47
2023-04-23T16:06:45.421Z,100577.34
2023-04-23T16:09:51.486Z,100569.72
2023-04-23T16:12:58.981Z,100564.75
2023-04-23T16:16:04.535Z,100560.06
2023-04-23T16:19:10.002Z,100562.56
2023-04-23T16:22:16.425Z,100558.47
2023-04-23T16:25:21.806Z,100554.78
2023-04-23T16:28:27.318Z,100548.88
2023-04-23T16:31:33.115Z,100546.22
2023-04-23T16:34:38.664Z,100540.81
2023-04-23T16:37:44.230Z,100539.81
2023-04-23T16:40:50.498Z,100542.81
2023-04-23T16:43:56.280Z,100530.41
2023-04-23T16:47:01.972Z,100530.66
2023-04-23T16:50:08.185Z,100533.47
2023-04-23T16:53:13.870Z,100522.00
2023-04-23T16:56:19.567Z,100529.81
2023-04-23T16:59:25.033Z,100521.59
2023-04-23T17:02:30.874Z,100521.66
2023-04-23T17:05:39.859Z,100508.97
2023-04-23T17:08:45.610Z,100515.44
2023-04-23T17:11:51.397Z,100501.47
2023-04-23T17:14:57.148Z,100510.44
2023-04-23T17:18:02.897Z,100502.25
2023-04-23T17:21:08.499Z,100508.16
2023-04-23T17:24:14.122Z,100496.69
2023-04-23T17:27:19.506Z,100502.50
2023-04-23T17:30:24.897Z,100489.38
2023-04-23T17:33:30.375Z,100485.66
2023-04-23T17:36:36.259Z,100491.00
2023-04-23T17:39:42.040Z,100486.00
2023-04-23T17:42:47.718Z,100484.00
2023-04-23T17:45:53.440Z,100475.00
2023-04-23T17:48:59.150Z,100469.19
2023-04-23T17:52:06.549Z,100463.91
2023-04-23T17:55:13.888Z,100464.09
2023-04-23T17:58:19.644Z,100462.13
2023-04-23T18:01:25.616Z,100461.19
2023-04-23T18:04:33.298Z,100460.22
2023-04-23T18:07:39.671Z,100462.06
2023-04-23T18:10:46.281Z,100465.16
2023-04-23T18:13:53.734Z,100463.38
2023-04-23T18:16:59.465Z,100470.88
2023-04-23T18:20:11.886Z,100477.97
2023-04-23T18:23:18.433Z,100482.38
2023-04-23T18:26:24.214Z,100482.56
2023-04-23T18:29:30.108Z,100492.28
2023-04-23T18:32:40.170Z,100499.56
2023-04-23T18:35:50.372Z,100491.09
2023-04-23T18:38:56.535Z,100495.50
2023-04-23T18:42:02.165Z,100484.94
2023-04-23T18:45:09.159Z,100493.63
2023-04-23T18:49:00.890Z,100489.06
2023-04-23T18:52:07.160Z,100490.03
2023-04-23T18:55:13.158Z,100496.53
2023-04-23T18:58:19.206Z,100494.16
2023-04-23T19:01:27.801Z,100488.22
2023-04-23T19:04:34.028Z,100490.47
2023-04-23T19:07:41.616Z,100494.28
2023-04-23T19:10:47.811Z,100496.25
2023-04-23T19:13:53.276Z,100504.66
2023-04-23T19:16:59.237Z,100488.31
2023-04-23T19:20:05.322Z,100471.16
2023-04-23T19:23:11.367Z,100472.16
2023-04-23T19:26:16.925Z,100472.19
2023-04-23T19:29:23.892Z,100472.19
2023-04-23T19:32:33.894Z,100464.41
2023-04-23T19:35:40.366Z,100467.97
2023-04-23T19:38:46.938Z,100466.72
2023-04-23T19:41:52.902Z,100460.56
2023-04-23T19:44:59.027Z,100450.88
2023-04-23T19:48:04.921Z,100463.09
2023-04-23T19:51:10.996Z,100457.38
2023-04-23T19:54:16.562Z,100473.56
2023-04-23T19:57:22.614Z,100468.06
2023-04-23T20:00:30.956Z,100478.13
2023-04-23T20:03:37.061Z,100485.38
2023-04-23T20:06:43.531Z,100486.41
2023-04-23T20:09:48.786Z,100478.69
2023-04-23T20:12:54.482Z,100475.75
2023-04-23T20:16:00.647Z,100474.50
2023-04-23T20:19:11.324Z,100471.53
2023-04-23T20:22:16.865Z,100481.38
2023-04-23T20:25:25.622Z,100477.91
2023-04-23T20:28:31.572Z,100477.28
2023-04-23T20:31:37.379Z,100471.63
2023-04-23T20:34:42.664Z,100473.31
2023-04-23T20:37:48.217Z,100468.09
2023-04-23T20:40:54.278Z,100463.16
2023-04-23T20:44:00.368Z,100461.78
2023-04-23T20:47:08.703Z,100466.56
2023-04-23T20:50:14.586Z,100458.00
2023-04-23T20:53:19.945Z,100458.84
2023-04-23T20:56:25.572Z,100462.06
2023-04-23T20:59:31.524Z,100463.72
2023-04-23T21:02:38.239Z,100461.75
2023-04-23T21:05:45.185Z,100467.78
2023-04-23T21:08:51.144Z,100463.94
2023-04-23T21:11:57.216Z,100464.00
2023-04-23T21:15:02.799Z,100453.75
2023-04-23T21:18:09.951Z,100459.00
2023-04-23T21:21:15.624Z,100463.94
2023-04-23T21:24:21.348Z,100461.53
2023-04-23T21:27:27.312Z,100476.16
2023-04-23T21:30:53.638Z,100477.06
2023-04-23T21:33:59.813Z,100472.00
2023-04-23T21:37:05.189Z,100482.72
2023-04-23T21:40:11.028Z,100484.91
2023-04-23T21:43:16.980Z,100485.09
2023-04-23T21:46:25.286Z,100483.16
2023-04-23T21:49:32.006Z,100479.41
2023-04-23T21:52:38.244Z,100480.22
2023-04-23T21:55:43.738Z,100477.59
2023-04-23T21:58:49.233Z,100467.97
2023-04-23T22:01:55.620Z,100477.06
2023-04-23T22:05:01.336Z,100474.34
2023-04-23T22:08:09.868Z,100468.22
2023-04-23T22:11:17.548Z,100467.72
2023-04-23T22:14:22.983Z,100466.03
2023-04-23T22:17:30.791Z,100459.13
2023-04-23T22:20:38.101Z,100455.09
2023-04-23T22:23:43.277Z,100437.09
2023-04-23T22:26:48.675Z,100437.69
2023-04-23T22:29:54.737Z,100434.28
2023-04-23T22:33:00.105Z,100442.50
2023-04-23T22:36:05.888Z,100434.53
2023-04-23T22:39:12.929Z,100429.91
2023-04-23T22:42:18.587Z,100432.69
2023-04-23T22:45:24.387Z,100423.50
2023-04-23T22:48:31.391Z,100418.41
2023-04-23T22:51:38.994Z,100427.56
2023-04-23T22:54:44.373Z,100414.13
2023-04-23T22:57:50.163Z,100410.09
2023-04-23T23:00:55.781Z,100402.31
2023-04-23T23:04:01.157Z,100411.41
2023-04-23T23:07:07.085Z,100416.00
2023-04-23T23:10:12.503Z,100408.78
2023-04-23T23:13:18.017Z,100407.47
2023-04-23T23:16:23.744Z,100398.09
2023-04-23T23:19:31.236Z,100402.66
2023-04-23T23:22:36.789Z,100398.63
2023-04-23T23:25:42.468Z,100391.94
2023-04-23T23:28:48.082Z,100385.22
2023-04-23T23:31:53.510Z,100377.41
2023-04-23T23:34:59.233Z,100367.44
2023-04-23T23:38:04.513Z,100369.13
2023-04-23T23:41:10.302Z,100371.81
2023-04-23T23:44:16.907Z,100359.72
2023-04-23T23:47:22.861Z,100358.88
2023-04-23T23:50:28.740Z,100357.28
2023-04-23T23:53:34.385Z,100356.47
2023-04-23T23:56:40.210Z,100342.97
2023-04-23T23:59:45.805Z,100346.81
